Timeline UpdatesTrip UpdatesNews PostsPvt PostsTravel TipsAdmin PostsConv PostsFollowed PostsChat RequestsBlog PostsPNR Posts

Disclaimer
Search
 
 
Tue Sep 16, 2014 14:57:24 ISTHomeTrainsΣChainsAtlasPNRForumGalleryNewsFAQTripsMembersLoginFeedback
No Recent News for this Train
Other Trains in the News **new
Latest...
.
Mon Sep 01, 2014 (10:28PM)
⇐ Return Journey: Train# 15707

15708/Amrapali Express

Time-Table HAS CHANGED.
Sep 01 (11:38PM)
Change Departure Station:
Change Arrival Station:
Post a Train Travel TipPost a Train Travel Tip **new
Post a Comment/Question/Picture/VideoPost a Comment/Question/Picture/Video
Pantry/Catering
✕ NO Pantry Car
✓ Catering Avbl
RSA - Rake Sharing
This train has 5 rakes in all, and has on-board cleaning system available. ; Charging points available in AC-2 tier, one in each coupe.
Rake/Coach Composition
LOCO«SLR-GN-GN-GN-GN-Gn-S9-S8-S7-S6-S5-S4-S3-S2-S1-B1-A1-GN-GN-GN-GN-SLR=22 Coach Train. S9 becomes S1 in UP train.
Loco
ASR-LKO> CNB WAP4 LKO-KIR> SGUJ WDP4
News    PNR    Forum    Time-Table    Availability    Fare Chart    Map    Arr/Dep History    Trips    Gallery    ΣChains    X/O    Timeline    
Travel Time: 24h 35m    25 halts    Distance: 1269 km    Avg Speed: 51 km/hr
Type: Mail/Express
Zone: NFR/Northeast Frontier
Departs @ 12:00 (Avg 6m late)
Platform# 6
SMTWTFS
Ambala Cantt. Junction/UMB 
Arrives @ 12:35 +1 night (Avg 3h 2m late)
Platform# 3
SMTWTFS
Muzaffarpur Junction/MFP 

25 halts. 203 intermediate Stations between Ambala Cantt. Junction and Muzaffarpur Junction

Show ALL intermediate Stations  Show Old Time-Table

#CodeStation NameX/OArrivesAvgDepartsAvgHaltPFDay#KmSpeedElevZoneAddress
1ASRAmritsar Junction (5)  -07:15+431-249.682233mNRAmritsar 143002, Punjab
2JNLJandiala (2)X  07:29+1407:31+142m21-230.484238mNRJandiala, Punjab
3BEASBeas Junction (2)  07:48+1607:50+162m21-206.561238mNRBeas, Punjab
4KREKartarpur (2)X  08:11+1308:13+132m11-185.152236mNRKartarpur, Punjab
5JUCJalandhar City Junction (5)X  08:30+908:35+115m21-170.426239mNRJalandhar 144001, Punjab
6JRCJalandhar Cantt. Junction (3)X  08:46+908:48+92m21-165.665239mNRNear Rama Mandi, Punjab
7PGWPhagwara Junction (3)X  09:03+809:05+92m11-149.359245mNRPhagwara, Punjab
8GRYGoraya (2)X  09:15+909:17+92m11-139.469240mNRGoraya, Punjab
9PHRPhillaur Junction (3)X  09:28+909:30+92m11-126.752246mNRPhillaur, Punjab
10LDHLudhiana Junction (7)X  09:45+1109:55+1610m11-113.657246mNRLudhiana 141001, Punjab
11KNNKhanna (3)X  10:40+710:42+82m21-70.867269mNRNH 1, Punjab
12SIRSirhind Junction (3)  10:58+611:00+62m21-52.988271mNRSirhind, Punjab
13RPJRajpura Junction (3)11:18 11:17+711:20 11:19+62m21-28.147272mNRNH-1, Punjab
14UMB»Ambala Cantt. Junction (7)»  11:55+512:00+65m610.087278mNRAmbala 133001, Haryana
15KUNKarnal (3)  12:56 12:52+1712:58 12:54+182m1175.271253mNRKarnal, Haryana
16PNPPanipat Junction (5)  13:26 13:23+1413:28 13:25+142m11109.687235mNRPanipat, Haryana
17SNPSonipat (3)X  14:00 13:56+1514:02 13:58+152m11154.762225mNRSonipat, Haryana
18SZMDelhi Sabzi Mandi (2)  14:37+2014:39+202m--1195.17220mNRGulabi Bagh, Delhi NCT
19DLIOld Delhi Junction (16)XO  15:05+1315:20+1415m111198.158219mNRNear Chandni Chowk Metro Station, Delhi NCT
20KRJKhurja Junction (4)X16:45 16:46+5916:47 16:48+1:022m--1280.879199mNCRBulandshahr, Uttar Pradesh
21ALJNAligarh Junction (4)X  17:11 17:21+1:3017:16 17:24+1:305 3m21324.346192mNCRAligarh, Uttar Pradesh
22HRSHathras Junction (3)X  18:02 18:03+1:3818:04 18:05+1:382m21354.563183mNCRMahamaya Nagar(05722-242803), Uttar Pradesh
23TDLTundla Junction (5)X  18:51+2:0018:56+2:065m--1402.555167mNCRDistt.Firozabad, Uttar Pradesh
24FZDFirozabad (4)X  19:20 19:14+2:0619:22 19:16+2:152m21419.092164mNCRFirozabad, Uttar Pradesh
25ETWEtawah (5)O  20:44 20:05+1:5620:46 20:07+1:592m31494.351154mNCRDistt. Etawah, Uttar Pradesh
26CNBKanpur Central (10)X  22:45 22:50+1:4823:00+1:4715 10m--1633.647128mNCRKANPUR-208 001, Uttar Pradesh
27ONUnnao Junction (5)X  23:21 23:22+2:0123:23 23:24+2:012m--1651.054129mNRUnnao, Uttar Pradesh
28LKOLucknow Charbagh NR (9)X  00:25+1:5800:50+1:5525m12705.638123mNR226004, Uttar Pradesh
29BBKBarabanki Junction (4)X  01:35+1:4701:37+1:472m--2734.262122mNRPin-225001, Uttar Pradesh
30GDGonda Junction (3)X  02:55 03:03+2:0703:00 03:05+2:095 2m22823.567110mNERGonda 271001, Uttar Pradesh
31MURMankapur Junction (5)03:21 03:30+2:0603:23 03:32+2:062m--2851.476104mNERDistrict Gonda, Uttar Pradesh
32BSTBasti (4)  04:05 04:20+2:1004:10 04:25+2:115m--2911.98490mNERBasti 272001, Uttar Pradesh
33KLDKhalilabad (3)X  04:31 04:46+2:1504:33 04:48+2:172m--2941.43686mNERKhalilabad- 272175, Uttar Pradesh
34GKPGorakhpur Junction (10)X  05:45+1:5106:00+1:5015m72975.45684mNERGorakhpur 273001, Uttar Pradesh
35DEOSDeoria Sadar (3)  06:46 06:53+2:2206:48 06:55+2:292m221024.55679mNERDeoria- 274001, Uttar Pradesh
36SVSiwan Junction (4)  08:10+2:4708:15+2:495m121094.04170mNERSiwan, Bihar
37CPRChhapra Junction (6)X  09:45+2:1710:05+2:2420m--21155.26458mNERDistt: Saran, Bihar
38SEESonpur Junction (4)  10:56+2:5511:03+3:117m--21209.22556mECRSaran, Bihar
39HJPHajipur Junction (3)X  11:16+3:1311:18+3:262m--21214.74255mECR06224-272230, Bihar
40MFP•Muzaffarpur Junction (6)•  12:55 12:35+3:0213:05 12:40+3:0210 5m321268.67257mECRMuzaffarpur, Bihar
41DOLDholi (2)  13:26 13:01+3:3713:28 13:03+3:382m--21293.767 ECRDistt. Muzaffarpur, Bihar
42KRBPKhudiram B Pusa (2)  13:40 13:15+3:3713:42 13:17+3:382m--21307.13652mECRDistt. Samastipur, Bihar
43SPJSamastipur Junction (9)  14:05 13:40+3:5314:13 13:45+3:538 5m--21320.73055mECRSamastipur, Bihar
44BJUBarauni Junction (9)  15:25+3:3315:35+3:3610m521371.24049mECRBegusarai, Bihar
45BGSBegusarai (3)  15:55+3:5715:57+3:572m221384.75446mECRBegusarai, Bihar
46KGGKhagaria Junction (3)  16:51 16:41+3:2316:53 16:43+3:252m221424.66643mECRKhagaria, Bihar
47MNEMansi Junction (4)  17:04 16:51+3:4217:06 16:53+3:422m--21433.46343mECRMansi, Bihar
48THBThana Bihpur Junction (3)  18:08 17:33+3:4518:10 17:35+3:462m--21475.47339mECRThana Bihpur, Bihar
49NNANaugachia (3)X  18:30 17:48+3:4318:32 17:50+3:432m121491.36237mECRBhagalpur, Bihar
50KUEKurselaX  18:56 18:08+3:4418:58 18:10+3:452m--21509.82831mECRNH 31, Bihar
51CRRKaragola RoadX  19:28 18:46+3:3619:30 18:48+3:372m--21526.81636mECRLachhmipur, Bihar
52KIRKatihar Junction (7)  20:10+2:52-121549.1-35mNFRKatihar 854105, Bihar
Scroll to Top
Scroll to Bottom